createdAt,value
2019-04-19T00:01:01.437Z,7.50
2019-04-19T00:02:01.750Z,7.00
2019-04-19T00:02:56.058Z,7.10
2019-04-19T00:03:57.273Z,6.90
2019-04-19T00:04:59.346Z,6.70
2019-04-19T00:05:56.012Z,6.90
2019-04-19T00:07:05.710Z,7.10
2019-04-19T00:08:12.501Z,6.70
2019-04-19T00:09:08.988Z,6.70
2019-04-19T00:10:02.466Z,6.90
2019-04-19T00:11:07.166Z,7.20
2019-04-19T00:12:07.176Z,7.10
2019-04-19T00:12:59.997Z,7.40
2019-04-19T00:13:55.721Z,6.40
2019-04-19T00:14:55.475Z,6.80
2019-04-19T00:15:56.074Z,7.40
2019-04-19T00:16:55.607Z,6.90
2019-04-19T00:17:59.943Z,7.00
2019-04-19T00:19:21.251Z,6.50
2019-04-19T00:20:22.073Z,6.30
2019-04-19T00:21:13.683Z,7.00
2019-04-19T00:22:17.026Z,7.30
2019-04-19T00:23:08.753Z,6.40
2019-04-19T00:23:56.936Z,6.80
2019-04-19T00:24:56.591Z,7.20
2019-04-19T00:25:55.785Z,6.80
2019-04-19T00:26:56.933Z,7.30
2019-04-19T00:27:59.415Z,6.80
2019-04-19T00:29:01.037Z,7.40
2019-04-19T00:30:02.257Z,7.00
2019-04-19T00:31:12.014Z,6.90
2019-04-19T00:32:15.705Z,6.70
2019-04-19T00:33:09.095Z,7.40
2019-04-19T00:33:58.836Z,7.00
2019-04-19T00:34:56.699Z,6.90
2019-04-19T00:35:55.915Z,6.60
2019-04-19T00:36:55.851Z,6.60
2019-04-19T00:38:02.463Z,7.40
2019-04-19T00:39:15.328Z,6.70
2019-04-19T00:40:15.590Z,6.90
2019-04-19T00:41:14.394Z,6.70
2019-04-19T00:42:16.622Z,7.50
2019-04-19T00:43:08.958Z,6.90
2019-04-19T00:44:06.909Z,7.30
2019-04-19T00:45:15.854Z,7.00
2019-04-19T00:46:09.029Z,6.90
2019-04-19T00:47:14.481Z,7.40
2019-04-19T00:48:07.410Z,7.60
2019-04-19T00:49:10.215Z,7.20
2019-04-19T00:50:09.632Z,7.30
2019-04-19T00:51:08.139Z,6.50
2019-04-19T00:52:10.365Z,7.40
2019-04-19T00:53:11.344Z,7.10
2019-04-19T00:54:07.217Z,7.10
2019-04-19T00:55:04.734Z,6.90
2019-04-19T00:56:04.531Z,6.80
2019-04-19T00:57:02.966Z,7.00
2019-04-19T00:58:04.070Z,6.80
2019-04-19T00:59:00.706Z,6.90
2019-04-19T00:59:56.882Z,7.30
2019-04-19T01:00:57.314Z,7.00
2019-04-19T01:02:04.274Z,7.00
2019-04-19T01:02:57.919Z,7.10
2019-04-19T01:03:57.330Z,7.30
2019-04-19T01:05:03.673Z,7.10
2019-04-19T01:06:02.049Z,7.40
2019-04-19T01:07:00.575Z,7.20
2019-04-19T01:08:01.829Z,6.40
2019-04-19T01:09:12.042Z,6.90
2019-04-19T01:10:14.839Z,6.80
2019-04-19T01:11:12.971Z,6.70
2019-04-19T01:12:10.759Z,7.00
2019-04-19T01:13:08.042Z,6.70
2019-04-19T01:14:11.735Z,7.30
2019-04-19T01:15:09.314Z,6.90
2019-04-19T01:16:11.213Z,7.20
2019-04-19T01:17:15.152Z,6.50
2019-04-19T01:18:11.560Z,6.80
2019-04-19T01:19:04.192Z,7.60
2019-04-19T01:20:00.268Z,7.00
2019-04-19T01:20:56.598Z,7.20
2019-04-19T01:21:57.463Z,6.90
2019-04-19T01:23:05.350Z,7.60
2019-04-19T01:23:59.051Z,6.80
2019-04-19T01:24:56.664Z,6.80
2019-04-19T01:26:01.653Z,8.10
2019-04-19T01:26:58.766Z,6.60
2019-04-19T01:28:03.272Z,7.10
2019-04-19T01:29:02.606Z,6.50
2019-04-19T01:29:58.298Z,6.50
2019-04-19T01:30:57.051Z,6.90
2019-04-19T01:32:03.150Z,7.30
2019-04-19T01:32:59.806Z,7.10
2019-04-19T01:33:56.815Z,6.60
2019-04-19T01:35:00.943Z,7.20
2019-04-19T01:35:57.416Z,7.50
2019-04-19T01:36:57.013Z,7.10
2019-04-19T01:38:00.716Z,6.80
2019-04-19T01:39:14.541Z,7.10
2019-04-19T01:40:09.379Z,6.70
2019-04-19T01:41:14.506Z,6.80
2019-04-19T01:42:11.736Z,7.40
2019-04-19T01:43:13.360Z,7.30
2019-04-19T01:44:21.455Z,6.80
2019-04-19T01:45:12.552Z,6.80
2019-04-19T01:46:13.047Z,7.30
2019-04-19T01:47:19.976Z,7.10
2019-04-19T01:48:12.995Z,7.00
2019-04-19T01:49:06.277Z,6.80
2019-04-19T01:50:11.299Z,6.30
2019-04-19T01:51:13.322Z,7.00
2019-04-19T01:52:18.122Z,6.90
2019-04-19T01:53:17.393Z,7.40
2019-04-19T01:54:20.557Z,6.70
2019-04-19T01:55:07.677Z,6.90
2019-04-19T01:56:03.829Z,6.90
2019-04-19T01:57:02.207Z,7.20
2019-04-19T01:58:04.909Z,6.80
2019-04-19T01:59:00.735Z,7.20
2019-04-19T01:59:59.159Z,7.10
2019-04-19T02:01:00.237Z,7.40
2019-04-19T02:02:01.487Z,6.00
2019-04-19T02:03:01.208Z,7.00
2019-04-19T02:03:57.324Z,7.00
2019-04-19T02:05:03.137Z,7.00
2019-04-19T02:06:01.864Z,7.40
2019-04-19T02:06:58.326Z,7.00
2019-04-19T02:08:03.464Z,7.10
2019-04-19T02:08:59.200Z,7.00
2019-04-19T02:10:12.217Z,7.80
2019-04-19T02:11:05.522Z,7.10
2019-04-19T02:12:12.829Z,6.50
2019-04-19T02:13:10.238Z,6.90
2019-04-19T02:14:04.831Z,7.00
2019-04-19T02:15:03.871Z,7.00
2019-04-19T02:15:58.036Z,6.70
2019-04-19T02:17:02.625Z,6.90
2019-04-19T02:17:58.813Z,7.40
2019-04-19T02:19:05.317Z,6.50
2019-04-19T02:20:02.768Z,7.00
2019-04-19T02:20:58.194Z,7.00
2019-04-19T02:22:02.086Z,7.00
2019-04-19T02:23:04.286Z,6.90
2019-04-19T02:24:01.790Z,7.10
2019-04-19T02:25:00.244Z,6.80
2019-04-19T02:26:03.585Z,7.40
2019-04-19T02:27:02.746Z,7.20
2019-04-19T02:27:58.462Z,7.40
2019-04-19T02:29:02.741Z,7.00
2019-04-19T02:30:07.084Z,6.40
2019-04-19T02:31:10.613Z,7.00
2019-04-19T02:32:19.078Z,7.00
2019-04-19T02:33:20.280Z,7.40
2019-04-19T02:34:29.125Z,7.10
2019-04-19T02:35:20.193Z,6.50
2019-04-19T02:36:25.407Z,7.00
2019-04-19T02:37:28.440Z,7.30
2019-04-19T02:38:22.757Z,6.90
2019-04-19T02:39:30.858Z,7.60
2019-04-19T02:42:32.691Z,7.10
2019-04-19T02:43:37.889Z,6.80
2019-04-19T02:44:46.171Z,6.60
2019-04-19T02:45:26.239Z,7.10
2019-04-19T02:48:26.283Z,7.50
2019-04-19T02:49:28.488Z,7.40
2019-04-19T02:50:35.879Z,7.90
2019-04-19T02:51:25.370Z,7.80
2019-04-19T02:52:40.979Z,6.80
2019-04-19T02:53:23.960Z,7.30
2019-04-19T02:54:25.663Z,7.30
2019-04-19T02:55:20.022Z,7.60
2019-04-19T02:56:39.281Z,7.40
2019-04-19T02:57:36.739Z,7.20
2019-04-19T02:58:21.404Z,7.40
2019-04-19T02:59:36.975Z,7.10
2019-04-19T03:00:37.148Z,7.40
2019-04-19T03:01:34.491Z,7.20
2019-04-19T03:02:37.695Z,7.60
2019-04-19T03:05:22.099Z,7.50
2019-04-19T03:06:15.325Z,7.10
2019-04-19T03:07:01.125Z,7.60
2019-04-19T03:07:59.583Z,6.90
2019-04-19T03:08:58.584Z,7.00
2019-04-19T03:09:58.447Z,7.60
2019-04-19T03:11:08.994Z,7.20
2019-04-19T03:12:13.754Z,7.50
2019-04-19T03:13:16.229Z,7.70
2019-04-19T03:14:11.912Z,7.30
2019-04-19T03:15:09.939Z,7.40
2019-04-19T03:16:21.736Z,8.00
2019-04-19T03:17:18.899Z,7.30
2019-04-19T03:18:19.332Z,7.10
2019-04-19T03:19:09.447Z,7.60
2019-04-19T03:20:17.893Z,7.80
2019-04-19T03:21:17.019Z,8.40
2019-04-19T03:22:18.315Z,7.60
2019-04-19T03:23:13.927Z,6.90
2019-04-19T03:24:16.791Z,7.20
2019-04-19T03:25:15.250Z,7.10
2019-04-19T03:26:17.169Z,8.20
2019-04-19T03:27:09.032Z,7.70
2019-04-19T03:28:11.074Z,7.40
2019-04-19T03:29:08.066Z,7.40
2019-04-19T03:30:11.210Z,7.50
2019-04-19T03:31:23.352Z,7.20
2019-04-19T03:34:20.627Z,8.40
2019-04-19T03:35:22.195Z,7.60
2019-04-19T03:36:18.301Z,7.70
2019-04-19T03:37:16.435Z,7.30
2019-04-19T03:38:12.762Z,7.40
2019-04-19T03:39:23.007Z,7.60
2019-04-19T03:41:29.335Z,8.40
2019-04-19T03:42:20.077Z,7.80
2019-04-19T03:43:20.129Z,7.40
2019-04-19T03:44:17.154Z,7.60
2019-04-19T03:45:19.099Z,7.30
2019-04-19T03:46:15.980Z,7.10
2019-04-19T03:47:19.013Z,8.00
2019-04-19T03:48:35.039Z,7.90
2019-04-19T03:49:24.115Z,7.70
2019-04-19T03:50:15.576Z,7.30
2019-04-19T03:51:15.382Z,8.20
2019-04-19T03:52:20.134Z,7.70
2019-04-19T03:53:20.552Z,7.30
2019-04-19T03:54:17.575Z,7.50
2019-04-19T03:55:19.182Z,7.60
2019-04-19T03:56:18.069Z,6.80
2019-04-19T03:57:10.155Z,7.30
2019-04-19T03:58:06.474Z,7.40
2019-04-19T03:58:59.269Z,7.60
2019-04-19T04:00:00.302Z,7.20
2019-04-19T04:01:00.088Z,7.70
2019-04-19T04:02:01.012Z,8.00
2019-04-19T04:03:03.225Z,7.40
2019-04-19T04:04:07.380Z,7.50
2019-04-19T04:05:06.007Z,8.00
2019-04-19T04:05:59.935Z,7.40
2019-04-19T04:07:05.321Z,7.20
2019-04-19T04:08:04.607Z,7.60
2019-04-19T04:09:03.084Z,7.70
2019-04-19T04:10:00.700Z,7.30
2019-04-19T04:11:00.155Z,7.40
2019-04-19T04:12:15.244Z,7.50
2019-04-19T04:13:14.078Z,7.50
2019-04-19T04:14:13.658Z,7.20
2019-04-19T04:15:10.422Z,7.20
2019-04-19T04:16:14.057Z,7.50
2019-04-19T04:17:00.190Z,7.30
2019-04-19T04:18:00.614Z,7.70
2019-04-19T04:18:59.678Z,8.20
2019-04-19T04:20:00.786Z,7.60
2019-04-19T04:21:00.633Z,7.20
2019-04-19T04:22:00.596Z,7.10
2019-04-19T04:23:03.610Z,7.90
2019-04-19T04:24:12.126Z,7.70
2019-04-19T04:25:09.511Z,7.40
2019-04-19T04:26:06.636Z,8.00
2019-04-19T04:27:07.689Z,8.00
2019-04-19T04:28:08.996Z,7.50
2019-04-19T04:29:10.381Z,7.60
2019-04-19T04:30:10.101Z,7.10
2019-04-19T04:31:09.748Z,7.20
2019-04-19T04:32:11.941Z,7.00
2019-04-19T04:33:07.396Z,7.70
2019-04-19T04:34:05.219Z,7.50
2019-04-19T04:35:13.944Z,7.50
2019-04-19T04:36:20.933Z,7.40
2019-04-19T04:37:17.071Z,7.40
2019-04-19T04:38:08.951Z,7.50
2019-04-19T04:39:00.822Z,7.20
2019-04-19T04:39:59.949Z,7.10
2019-04-19T04:41:10.721Z,7.50
2019-04-19T04:42:12.393Z,7.40
2019-04-19T04:43:13.761Z,6.90
2019-04-19T04:44:19.975Z,7.50
2019-04-19T04:45:24.680Z,7.10
2019-04-19T04:46:20.959Z,7.50
2019-04-19T04:47:23.243Z,6.90
2019-04-19T04:48:21.615Z,7.10
2019-04-19T04:49:30.570Z,7.30
2019-04-19T04:50:28.853Z,6.80
2019-04-19T04:51:19.662Z,7.20
2019-04-19T04:52:11.338Z,7.10
2019-04-19T04:53:01.426Z,8.20
2019-04-19T04:54:00.205Z,7.80
2019-04-19T04:55:00.980Z,6.80
2019-04-19T04:56:02.809Z,7.30
2019-04-19T04:57:07.239Z,7.30
2019-04-19T04:58:02.744Z,7.10
2019-04-19T04:59:06.320Z,7.30
2019-04-19T05:00:02.522Z,7.00
2019-04-19T05:01:07.917Z,6.80
2019-04-19T05:02:08.203Z,6.70
2019-04-19T05:03:13.764Z,6.40
2019-04-19T05:04:17.384Z,7.10
2019-04-19T05:05:23.470Z,6.70
2019-04-19T05:06:16.492Z,6.60
2019-04-19T05:07:22.980Z,6.90
2019-04-19T05:08:19.508Z,7.40
2019-04-19T05:09:25.127Z,7.60
2019-04-19T05:10:20.125Z,7.10
2019-04-19T05:11:16.578Z,6.80
2019-04-19T05:12:34.017Z,7.00
2019-04-19T05:13:23.607Z,6.80
2019-04-19T05:14:18.240Z,7.40
2019-04-19T05:15:22.323Z,6.90
2019-04-19T05:16:27.570Z,7.00
2019-04-19T05:18:40.234Z,7.30
2019-04-19T05:19:17.842Z,6.80
2019-04-19T05:20:19.163Z,7.00
2019-04-19T05:21:17.967Z,7.00
2019-04-19T05:22:14.927Z,6.60
2019-04-19T05:23:19.769Z,6.60
2019-04-19T05:24:21.066Z,7.50
2019-04-19T05:25:28.315Z,7.10
2019-04-19T05:26:31.293Z,7.20
2019-04-19T05:27:24.743Z,7.00
2019-04-19T05:28:16.830Z,7.40
2019-04-19T05:29:11.002Z,6.80
2019-04-19T05:30:01.112Z,6.70
2019-04-19T05:31:04.111Z,7.40
2019-04-19T05:32:12.957Z,7.70
2019-04-19T05:33:08.437Z,7.30
2019-04-19T05:34:20.227Z,7.20
2019-04-19T05:35:16.755Z,7.10
2019-04-19T05:36:20.679Z,6.80
2019-04-19T05:37:16.226Z,7.40
2019-04-19T05:38:17.569Z,6.90
2019-04-19T05:40:21.589Z,7.60
2019-04-19T05:41:08.209Z,7.30
2019-04-19T05:42:14.501Z,6.60
2019-04-19T05:43:34.762Z,7.50
2019-04-19T05:46:21.197Z,6.60
2019-04-19T05:47:20.776Z,7.50
2019-04-19T05:48:18.340Z,7.00
2019-04-19T05:49:17.969Z,6.30
2019-04-19T05:50:28.032Z,7.30
2019-04-19T05:51:42.350Z,6.70
2019-04-19T05:52:27.007Z,7.10
2019-04-19T05:53:14.355Z,6.90
2019-04-19T05:54:06.838Z,6.60
2019-04-19T05:55:02.364Z,6.70
2019-04-19T05:56:01.231Z,6.90
2019-04-19T05:57:25.768Z,7.40
2019-04-19T05:58:11.382Z,6.70
2019-04-19T05:59:10.986Z,6.80
2019-04-19T06:00:14.965Z,6.60
2019-04-19T06:01:16.137Z,6.80
2019-04-19T06:02:12.464Z,6.70
2019-04-19T06:03:09.083Z,7.00
2019-04-19T06:04:22.060Z,7.30
2019-04-19T06:05:20.234Z,6.80
2019-04-19T06:06:26.228Z,7.10
2019-04-19T06:07:20.177Z,6.50
2019-04-19T06:08:10.374Z,7.60
2019-04-19T06:09:02.378Z,6.60
2019-04-19T06:10:03.554Z,6.60
2019-04-19T06:11:04.378Z,7.00
2019-04-19T06:12:08.309Z,7.10
2019-04-19T06:13:07.057Z,6.60
2019-04-19T06:14:28.942Z,6.90
2019-04-19T06:15:27.236Z,7.50
2019-04-19T06:16:21.078Z,7.00
2019-04-19T06:17:14.952Z,6.70
2019-04-19T06:18:16.680Z,6.80
2019-04-19T06:19:24.729Z,6.80
2019-04-19T06:20:20.655Z,6.90
2019-04-19T06:21:26.066Z,6.90
2019-04-19T06:22:14.585Z,7.10
2019-04-19T06:23:19.079Z,6.60
2019-04-19T06:24:26.526Z,6.70
2019-04-19T06:25:29.127Z,6.70
2019-04-19T06:27:25.104Z,7.00
2019-04-19T06:28:26.031Z,7.20
2019-04-19T06:29:22.592Z,6.50
2019-04-19T06:30:21.640Z,6.60
2019-04-19T06:31:27.034Z,6.10
2019-04-19T06:32:24.838Z,7.20
2019-04-19T06:33:21.524Z,6.60
2019-04-19T06:34:22.794Z,6.60
2019-04-19T06:35:15.335Z,6.50
2019-04-19T06:36:05.841Z,6.20
2019-04-19T06:37:11.061Z,6.30
2019-04-19T06:38:03.348Z,6.80
2019-04-19T06:39:02.080Z,6.70
2019-04-19T06:40:12.849Z,6.80
2019-04-19T06:41:08.692Z,6.70
2019-04-19T06:42:07.308Z,6.90
2019-04-19T06:43:08.798Z,6.50
2019-04-19T06:44:12.839Z,6.50
2019-04-19T06:45:25.289Z,6.70
2019-04-19T06:46:13.427Z,6.80
2019-04-19T06:47:11.090Z,6.90
2019-04-19T06:48:09.224Z,6.60
2019-04-19T06:49:08.322Z,6.30
2019-04-19T06:50:02.941Z,6.30
2019-04-19T06:51:13.062Z,6.70
2019-04-19T06:52:11.445Z,6.60
2019-04-19T06:53:02.318Z,6.50
2019-04-19T06:54:06.912Z,6.50
2019-04-19T06:55:10.026Z,6.30
2019-04-19T06:56:11.874Z,6.80
2019-04-19T06:57:12.036Z,6.80
2019-04-19T06:58:11.612Z,6.70
2019-04-19T06:59:13.075Z,6.10
2019-04-19T07:00:12.922Z,6.70
2019-04-19T07:01:14.363Z,6.30
2019-04-19T07:02:03.568Z,6.80
2019-04-19T07:03:02.622Z,6.40
2019-04-19T07:04:02.579Z,6.10
2019-04-19T07:05:20.424Z,6.60
2019-04-19T07:06:21.346Z,6.10
2019-04-19T07:07:23.558Z,7.00
2019-04-19T07:08:47.736Z,6.50
2019-04-19T07:09:26.436Z,6.40
2019-04-19T07:10:32.250Z,6.40
2019-04-19T07:11:28.399Z,6.40
2019-04-19T07:12:28.636Z,6.50
2019-04-19T07:13:18.042Z,5.80
2019-04-19T07:14:11.745Z,6.20
2019-04-19T07:15:30.127Z,6.50
2019-04-19T07:16:28.959Z,6.50
2019-04-19T07:17:23.502Z,7.00
2019-04-19T07:18:22.207Z,5.80
2019-04-19T07:19:26.615Z,6.20
2019-04-19T07:20:16.283Z,6.70
2019-04-19T07:21:26.336Z,6.30
2019-04-19T07:22:15.561Z,6.60
2019-04-19T07:23:24.197Z,6.60
2019-04-19T07:24:32.330Z,6.10
2019-04-19T07:25:30.482Z,7.10
2019-04-19T07:26:21.639Z,6.30
2019-04-19T07:27:15.527Z,6.90
2019-04-19T07:28:09.740Z,7.10
2019-04-19T07:29:04.182Z,6.80
2019-04-19T07:30:05.136Z,6.40
2019-04-19T07:31:06.169Z,6.50
2019-04-19T07:32:03.888Z,6.70
2019-04-19T07:33:09.405Z,6.60
2019-04-19T07:34:14.731Z,6.50
2019-04-19T07:35:13.371Z,6.40
2019-04-19T07:36:22.226Z,6.30
2019-04-19T07:37:20.803Z,6.60
2019-04-19T07:38:27.217Z,6.00
2019-04-19T07:39:22.838Z,6.50
2019-04-19T07:40:29.434Z,6.40
2019-04-19T07:41:21.944Z,6.50
2019-04-19T07:42:25.303Z,6.40
2019-04-19T07:43:18.305Z,6.10
2019-04-19T07:44:19.941Z,6.20
2019-04-19T07:45:08.303Z,6.60
2019-04-19T07:46:21.259Z,6.50
2019-04-19T07:47:20.168Z,6.40
2019-04-19T07:48:11.144Z,7.10
2019-04-19T07:49:04.125Z,6.70
2019-04-19T07:50:13.444Z,5.90
2019-04-19T07:51:11.045Z,6.80
2019-04-19T07:52:14.019Z,6.40
2019-04-19T07:53:04.262Z,6.30
2019-04-19T07:54:11.839Z,7.20
2019-04-19T07:55:08.423Z,6.60
2019-04-19T07:56:18.793Z,6.80
2019-04-19T07:57:39.487Z,6.80
2019-04-19T07:59:42.345Z,6.50
2019-04-19T08:01:33.111Z,6.60
2019-04-19T08:02:36.053Z,6.70
2019-04-19T08:03:38.435Z,6.40
2019-04-19T08:04:40.481Z,6.50
2019-04-19T08:05:26.666Z,6.30
2019-04-19T08:06:35.690Z,6.10
2019-04-19T08:07:41.393Z,6.40
2019-04-19T08:08:40.194Z,5.90
2019-04-19T08:10:28.289Z,7.20
2019-04-19T08:11:44.363Z,6.30
2019-04-19T08:15:27.542Z,6.70
2019-04-19T08:16:47.317Z,7.70
2019-04-19T08:27:27.513Z,6.50
2019-04-19T08:28:18.071Z,5.70
2019-04-19T08:29:16.121Z,6.20
2019-04-19T08:30:10.288Z,6.40
2019-04-19T08:31:07.202Z,6.10
2019-04-19T08:32:04.754Z,6.70
2019-04-19T08:33:04.778Z,6.10
2019-04-19T08:34:09.399Z,5.70
2019-04-19T08:35:09.380Z,6.50
2019-04-19T08:36:07.405Z,5.90
2019-04-19T08:37:10.117Z,6.50
2019-04-19T08:38:08.305Z,6.00
2019-04-19T08:39:21.236Z,6.30
2019-04-19T08:40:26.362Z,6.40
2019-04-19T08:41:14.891Z,7.20
2019-04-19T08:43:06.388Z,6.80
2019-04-19T08:43:22.778Z,5.80
2019-04-19T08:44:18.146Z,6.10
2019-04-19T08:45:10.175Z,5.80
2019-04-19T08:46:05.075Z,6.00
2019-04-19T08:47:16.806Z,6.00
2019-04-19T08:48:13.459Z,6.40
2019-04-19T08:49:10.651Z,6.30
2019-04-19T08:50:08.463Z,5.60
2019-04-19T08:51:05.807Z,6.20
2019-04-19T08:52:08.243Z,6.00
2019-04-19T08:53:24.071Z,5.80
2019-04-19T08:54:27.278Z,6.30
2019-04-19T08:55:26.148Z,5.80
2019-04-19T08:56:19.911Z,6.00
2019-04-19T08:57:12.587Z,6.30
2019-04-19T08:58:11.381Z,6.10
2019-04-19T08:59:28.005Z,5.70
2019-04-19T09:00:37.355Z,5.90
2019-04-19T09:01:27.364Z,5.90
2019-04-19T09:02:27.307Z,6.00
2019-04-19T09:03:19.199Z,5.60
2019-04-19T09:04:28.003Z,5.70
2019-04-19T09:05:23.473Z,5.90
2019-04-19T09:07:15.562Z,5.70
2019-04-19T09:07:46.260Z,5.80
2019-04-19T09:08:31.084Z,5.80
2019-04-19T09:09:24.751Z,5.80
2019-04-19T09:10:30.346Z,5.30
2019-04-19T09:12:23.716Z,5.70
2019-04-19T09:13:35.314Z,6.00
2019-04-19T09:14:33.082Z,5.50
2019-04-19T09:15:21.579Z,5.50
2019-04-19T09:16:20.990Z,5.80
2019-04-19T09:17:30.110Z,5.60
2019-04-19T09:18:31.997Z,6.20
2019-04-19T09:19:37.430Z,5.70
2019-04-19T09:20:26.689Z,5.70
2019-04-19T09:21:21.818Z,5.70
2019-04-19T09:22:24.289Z,5.70
2019-04-19T09:23:21.944Z,5.90
2019-04-19T09:24:12.857Z,5.60
2019-04-19T09:25:19.736Z,5.30
2019-04-19T09:26:26.550Z,5.40
2019-04-19T09:27:33.924Z,5.60
2019-04-19T09:28:36.596Z,5.60
2019-04-19T09:29:32.367Z,5.80
2019-04-19T09:30:27.426Z,5.60
2019-04-19T09:31:25.301Z,5.60
2019-04-19T09:32:11.876Z,5.70
2019-04-19T09:33:13.072Z,5.20
2019-04-19T09:34:10.646Z,5.50
2019-04-19T09:35:09.568Z,5.50
2019-04-19T09:36:11.233Z,5.30
2019-04-19T09:37:18.247Z,5.90
2019-04-19T09:38:17.157Z,5.50
2019-04-19T09:39:22.075Z,5.50
2019-04-19T09:40:11.485Z,5.10
2019-04-19T09:41:17.449Z,5.60
2019-04-19T09:42:18.420Z,5.40
2019-04-19T09:43:20.050Z,8.00
2019-04-19T09:44:16.931Z,5.20
2019-04-19T09:45:07.236Z,5.20
2019-04-19T09:46:06.446Z,6.20
2019-04-19T09:47:07.557Z,5.90
2019-04-19T09:48:13.900Z,6.00
2019-04-19T09:49:22.711Z,6.20
2019-04-19T09:50:16.115Z,6.10
2019-04-19T09:51:25.609Z,5.50
2019-04-19T09:52:31.769Z,5.20
2019-04-19T09:53:38.442Z,5.60
2019-04-19T09:54:25.713Z,5.80
2019-04-19T09:55:29.878Z,5.90
2019-04-19T09:56:26.011Z,5.50
2019-04-19T09:57:31.374Z,5.60
2019-04-19T09:58:25.531Z,5.20
2019-04-19T09:59:17.208Z,6.00
2019-04-19T10:00:12.207Z,5.40
2019-04-19T10:01:06.824Z,5.60
2019-04-19T10:02:08.444Z,5.20
2019-04-19T10:03:19.832Z,5.40
2019-04-19T10:04:08.953Z,5.50
2019-04-19T10:05:07.537Z,5.50
2019-04-19T10:06:06.914Z,5.30
2019-04-19T10:07:07.046Z,5.70
2019-04-19T10:08:06.965Z,5.10
2019-04-19T10:09:12.670Z,5.30
2019-04-19T10:10:09.833Z,6.00
2019-04-19T10:11:07.182Z,5.70
2019-04-19T10:12:07.069Z,5.10
2019-04-19T10:13:07.843Z,5.10
2019-04-19T10:14:08.203Z,5.10
2019-04-19T10:15:07.129Z,5.20
2019-04-19T10:16:08.190Z,5.30
2019-04-19T10:17:09.461Z,6.00
2019-04-19T10:18:07.222Z,6.60
2019-04-19T10:19:08.515Z,6.80
2019-04-19T10:20:07.255Z,5.20
2019-04-19T10:21:11.824Z,5.10
2019-04-19T10:22:07.307Z,5.40
2019-04-19T10:23:07.331Z,5.90
2019-04-19T10:24:12.931Z,5.00
2019-04-19T10:25:07.386Z,5.70
2019-04-19T10:26:10.696Z,5.50
2019-04-19T10:27:08.915Z,5.50
2019-04-19T10:28:07.716Z,5.10
2019-04-19T10:29:17.875Z,6.00
2019-04-19T10:30:08.245Z,5.70
2019-04-19T10:31:07.549Z,4.90
2019-04-19T10:32:08.551Z,5.20
2019-04-19T10:33:08.638Z,5.30
2019-04-19T10:34:07.815Z,6.40
2019-04-19T10:35:07.665Z,5.40
2019-04-19T10:36:08.696Z,5.10
2019-04-19T10:37:07.987Z,5.20
2019-04-19T10:38:07.782Z,5.10
2019-04-19T10:39:07.850Z,5.10
2019-04-19T10:40:07.930Z,5.40
2019-04-19T10:41:07.844Z,5.40
2019-04-19T10:42:08.285Z,5.20
2019-04-19T10:43:08.978Z,5.50
2019-04-19T10:44:13.685Z,5.60
2019-04-19T10:45:08.057Z,5.10
2019-04-19T10:46:08.974Z,5.20
2019-04-19T10:47:09.064Z,5.60
2019-04-19T10:48:08.075Z,5.10
2019-04-19T10:49:14.850Z,5.40
2019-04-19T10:50:20.493Z,5.60
2019-04-19T10:51:09.571Z,5.80
2019-04-19T10:52:08.209Z,8.00
2019-04-19T10:53:08.259Z,5.50
2019-04-19T10:54:08.577Z,5.00
2019-04-19T10:55:08.637Z,5.00
2019-04-19T10:56:08.348Z,5.40
2019-04-19T10:57:08.395Z,5.50
2019-04-19T10:58:09.415Z,5.50
2019-04-19T10:59:08.462Z,5.20
2019-04-19T11:00:09.270Z,5.50
2019-04-19T11:01:09.374Z,7.30
2019-04-19T11:02:08.560Z,4.80
2019-04-19T11:03:08.753Z,4.90
2019-04-19T11:04:08.873Z,5.00
2019-04-19T11:05:09.224Z,5.80
2019-04-19T11:06:08.705Z,5.60
2019-04-19T11:07:09.576Z,5.30
2019-04-19T11:08:09.662Z,4.90
2019-04-19T11:09:08.858Z,5.50
2019-04-19T11:10:09.758Z,6.30
2019-04-19T11:11:09.567Z,5.80
2019-04-19T11:12:10.043Z,5.00
2019-04-19T11:13:08.962Z,5.00
2019-04-19T11:14:10.038Z,4.90
2019-04-19T11:15:09.036Z,4.60
2019-04-19T11:16:10.056Z,5.50
2019-04-19T11:17:09.483Z,5.20
2019-04-19T11:18:09.773Z,5.10
2019-04-19T11:19:17.558Z,5.00
2019-04-19T11:20:24.008Z,4.80
2019-04-19T11:21:09.434Z,4.80
2019-04-19T11:22:09.747Z,5.30
2019-04-19T11:23:09.336Z,4.80
2019-04-19T11:24:09.621Z,4.90
2019-04-19T11:25:10.225Z,5.00
2019-04-19T11:26:10.339Z,4.80
2019-04-19T11:27:09.489Z,5.30
2019-04-19T11:28:09.526Z,5.10
2019-04-19T11:29:09.843Z,5.20
2019-04-19T11:30:10.763Z,4.90
2019-04-19T11:31:10.883Z,5.10
2019-04-19T11:32:10.040Z,5.30
2019-04-19T11:33:10.747Z,5.00
2019-04-19T11:34:11.018Z,5.00
2019-04-19T11:35:09.791Z,5.50
2019-04-19T11:36:11.079Z,4.90
2019-04-19T11:37:12.368Z,5.50
2019-04-19T11:38:11.084Z,5.30
2019-04-19T11:39:10.263Z,5.10
2019-04-19T11:40:11.201Z,4.70
2019-04-19T11:41:11.159Z,5.20
2019-04-19T11:42:10.058Z,4.80
2019-04-19T11:43:11.899Z,5.10
2019-04-19T11:44:16.384Z,5.20
2019-04-19T11:45:10.172Z,5.30
2019-04-19T11:46:10.214Z,4.70
2019-04-19T11:47:11.115Z,5.00
2019-04-19T11:48:10.986Z,5.80
2019-04-19T11:49:24.431Z,6.20
2019-04-19T11:50:11.578Z,4.50
2019-04-19T11:51:10.404Z,5.00
2019-04-19T11:52:11.230Z,5.70
2019-04-19T11:53:10.480Z,4.90
2019-04-19T11:54:10.517Z,5.40
2019-04-19T11:55:10.640Z,5.70
2019-04-19T11:56:10.596Z,5.30
2019-04-19T11:57:10.855Z,5.30
2019-04-19T11:58:10.671Z,4.80
2019-04-19T11:59:10.873Z,5.20
2019-04-19T12:00:11.575Z,5.10
2019-04-19T12:01:12.073Z,6.20
2019-04-19T12:02:10.826Z,5.50
2019-04-19T12:03:11.906Z,5.40
2019-04-19T12:04:12.098Z,5.30
2019-04-19T12:05:17.648Z,5.50
2019-04-19T12:06:12.035Z,5.10
2019-04-19T12:07:12.420Z,5.10
2019-04-19T12:08:11.062Z,5.00
2019-04-19T12:09:12.288Z,5.10
2019-04-19T12:10:12.355Z,4.90
2019-04-19T12:11:12.508Z,5.10
2019-04-19T12:12:11.205Z,4.90
2019-04-19T12:13:11.243Z,4.60
2019-04-19T12:14:12.251Z,4.70
2019-04-19T12:15:11.319Z,4.70
2019-04-19T12:16:11.367Z,5.40
2019-04-19T12:17:11.396Z,5.30
2019-04-19T12:18:12.359Z,4.70
2019-04-19T12:19:12.016Z,5.30
2019-04-19T12:20:11.553Z,5.40
2019-04-19T12:21:11.548Z,5.10
2019-04-19T12:22:12.800Z,4.60
2019-04-19T12:23:11.708Z,4.70
2019-04-19T12:24:12.789Z,4.70
2019-04-19T12:25:12.040Z,5.10
2019-04-19T12:26:11.737Z,5.40
2019-04-19T12:27:11.791Z,4.70
2019-04-19T12:28:12.057Z,4.70
2019-04-19T12:29:24.354Z,5.00
2019-04-19T12:30:11.884Z,4.80
2019-04-19T12:31:11.930Z,5.50
2019-04-19T12:32:11.961Z,5.20
2019-04-19T12:33:13.162Z,5.00
2019-04-19T12:34:13.258Z,5.00
2019-04-19T12:35:13.038Z,5.10
2019-04-19T12:36:12.829Z,4.90
2019-04-19T12:37:13.234Z,5.00
2019-04-19T12:38:12.342Z,5.20
2019-04-19T12:39:12.576Z,4.80
2019-04-19T12:40:12.878Z,5.30
2019-04-19T12:41:12.343Z,5.10
2019-04-19T12:42:13.489Z,4.90
2019-04-19T12:43:12.367Z,5.00
2019-04-19T12:44:13.295Z,4.70
2019-04-19T12:45:13.429Z,5.20
2019-04-19T12:46:12.926Z,5.00
2019-04-19T12:47:13.058Z,4.70
2019-04-19T12:48:13.893Z,4.80
2019-04-19T12:49:12.599Z,4.80
2019-04-19T12:50:13.486Z,5.30
2019-04-19T12:51:12.661Z,5.30
2019-04-19T12:52:12.692Z,4.80
2019-04-19T12:53:12.791Z,5.20
2019-04-19T12:54:14.064Z,4.90
2019-04-19T12:55:12.794Z,4.70
2019-04-19T12:56:13.843Z,5.00
2019-04-19T12:57:14.032Z,5.30
2019-04-19T12:58:14.000Z,5.30
2019-04-19T12:59:13.839Z,5.10
2019-04-19T13:00:14.048Z,5.20
2019-04-19T13:01:14.107Z,5.20
2019-04-19T13:02:13.749Z,5.00
2019-04-19T13:03:13.847Z,5.00
2019-04-19T13:04:13.120Z,5.40
2019-04-19T13:05:14.138Z,5.30
2019-04-19T13:06:13.423Z,4.90
2019-04-19T13:07:13.185Z,4.60
2019-04-19T13:08:13.204Z,5.30
2019-04-19T13:09:13.231Z,4.90
2019-04-19T13:10:13.263Z,4.70
2019-04-19T13:11:14.560Z,5.10
2019-04-19T13:12:13.319Z,4.90
2019-04-19T13:13:14.006Z,4.80
2019-04-19T13:14:13.376Z,4.80
2019-04-19T13:15:13.741Z,5.00
2019-04-19T13:16:14.410Z,4.90
2019-04-19T13:17:13.460Z,4.90
2019-04-19T13:18:14.200Z,4.70
2019-04-19T13:19:14.216Z,4.80
2019-04-19T13:20:20.982Z,4.70
2019-04-19T13:21:13.849Z,5.30
2019-04-19T13:22:14.519Z,5.40
2019-04-19T13:23:14.510Z,4.60
2019-04-19T13:24:14.131Z,4.70
2019-04-19T13:25:15.227Z,4.30
2019-04-19T13:26:13.707Z,4.40
2019-04-19T13:27:14.795Z,4.80
2019-04-19T13:28:13.762Z,5.00
2019-04-19T13:29:13.789Z,5.10
2019-04-19T13:30:22.571Z,4.80
2019-04-19T13:31:14.059Z,5.00
2019-04-19T13:32:13.867Z,5.00
2019-04-19T13:33:14.452Z,4.70
2019-04-19T13:34:13.920Z,4.50
2019-04-19T13:35:15.082Z,4.80
2019-04-19T13:36:15.184Z,4.80
2019-04-19T13:37:15.136Z,5.20
2019-04-19T13:38:15.053Z,4.80
2019-04-19T13:39:15.094Z,4.80
2019-04-19T13:40:14.472Z,4.40
2019-04-19T13:41:14.556Z,4.60
2019-04-19T13:42:14.843Z,4.50
2019-04-19T13:43:15.116Z,4.40
2019-04-19T13:44:14.689Z,4.90
2019-04-19T13:45:22.746Z,4.90
2019-04-19T13:46:14.805Z,4.80
2019-04-19T13:47:14.257Z,4.70
2019-04-19T13:48:14.550Z,5.10
2019-04-19T13:49:14.689Z,4.90
2019-04-19T13:50:22.121Z,4.90